Time;durP1;ratioP1;P1;durP2;ratioP2;P2;SDS_P1;SDS_P2;PMS_P1;PMS_P2;Temp;Humidity;BMP_temperature;BMP_pressure;BME280_temperature;BME280_humidity;BME280_pressure;Samples;Min_cycle;Max_cycle;Signal;HPM_P1;HPM_P2
2023/07/11 00:01:18;;;;;;;4.60;1.67;;;;;;;17.62;100.00;101761.50;5019043;28;20038;-82
2023/07/11 00:03:45;;;;;;;2.83;1.52;;;;;;;17.64;100.00;101759.69;5025126;28;20041;-83
2023/07/11 00:06:18;;;;;;;4.90;1.65;;;;;;;17.64;100.00;101767.69;5006901;28;20507;-82
2023/07/11 00:08:46;;;;;;;5.15;1.50;;;;;;;17.64;100.00;101769.47;5031534;28;20051;-82
2023/07/11 00:11:16;;;;;;;6.05;1.77;;;;;;;17.65;100.00;101773.91;5056193;28;20044;-82
2023/07/11 00:13:44;;;;;;;1.73;1.38;;;;;;;17.65;100.00;101766.78;4980941;28;20057;-82
2023/07/11 00:16:13;;;;;;;2.22;1.30;;;;;;;17.66;100.00;101765.00;5024561;28;20041;-81
2023/07/11 00:18:42;;;;;;;2.53;1.20;;;;;;;17.65;100.00;101769.44;5053519;28;20045;-82
2023/07/11 00:21:11;;;;;;;7.10;1.65;;;;;;;17.62;100.00;101758.84;5040163;28;20049;-82
2023/07/11 00:23:41;;;;;;;4.50;1.58;;;;;;;17.59;100.00;101755.31;5044990;28;20044;-81
2023/07/11 00:26:08;;;;;;;2.83;1.48;;;;;;;17.58;100.00;101748.22;5021245;28;20053;-82
2023/07/11 00:28:37;;;;;;;3.42;1.70;;;;;;;17.56;100.00;101756.25;5020752;28;20531;-81
2023/07/11 00:31:04;;;;;;;3.90;1.50;;;;;;;17.54;100.00;101750.03;5036142;28;20032;-82
2023/07/11 00:33:31;;;;;;;2.83;1.60;;;;;;;17.51;100.00;101744.75;5054040;28;20080;-80
2023/07/11 00:36:00;;;;;;;3.38;1.38;;;;;;;17.47;100.00;101745.69;5034657;28;20057;-82
2023/07/11 00:38:27;;;;;;;1.92;1.50;;;;;;;17.44;100.00;101745.72;5052992;28;20049;-82
2023/07/11 00:40:56;;;;;;;10.77;1.40;;;;;;;17.38;100.00;101738.66;5024248;28;20060;-82
2023/07/11 00:43:24;;;;;;;3.00;1.42;;;;;;;17.34;100.00;101734.28;5054920;28;20051;-81
2023/07/11 00:46:12;;;;;;;3.30;1.30;;;;;;;17.28;100.00;101729.91;5013267;28;20047;-82
2023/07/11 00:48:47;;;;;;;6.43;1.75;;;;;;;17.28;100.00;101731.69;5035099;28;20048;-82
2023/07/11 00:51:29;;;;;;;3.08;1.33;;;;;;;17.28;100.00;101729.91;5040219;28;20064;-82
2023/07/11 00:53:57;;;;;;;3.75;1.58;;;;;;;17.28;100.00;101729.03;5020619;28;20419;-82
2023/07/11 00:56:29;;;;;;;2.95;1.35;;;;;;;17.29;100.00;101733.44;5026112;28;20049;-81
2023/07/11 00:58:57;;;;;;;3.47;1.30;;;;;;;17.27;100.00;101732.56;5052126;28;20040;-82
2023/07/11 01:01:25;;;;;;;2.67;1.48;;;;;;;17.27;100.00;101729.91;4998033;28;20040;-82
2023/07/11 01:03:54;;;;;;;5.10;1.55;;;;;;;17.26;100.00;101726.38;5033337;28;20471;-82
2023/07/11 01:06:26;;;;;;;6.03;1.40;;;;;;;17.27;100.00;101720.13;5039166;28;20046;-82
2023/07/11 01:08:56;;;;;;;7.60;1.98;;;;;;;17.28;100.00;101718.38;5013522;28;20049;-81
2023/07/11 01:11:26;;;;;;;3.40;1.90;;;;;;;17.28;100.00;101724.56;5052473;28;20057;-82
2023/07/11 01:13:54;;;;;;;4.32;1.58;;;;;;;17.30;100.00;101717.44;5037469;28;20116;-82
2023/07/11 01:16:22;;;;;;;4.68;1.88;;;;;;;17.31;100.00;101705.00;5045664;28;20053;-82
2023/07/11 01:18:50;;;;;;;3.88;1.42;;;;;;;17.32;100.00;101706.78;5021909;28;20739;-82
2023/07/11 01:21:18;;;;;;;3.60;1.30;;;;;;;17.34;100.00;101710.28;5017259;28;20057;-81
2023/07/11 01:23:46;;;;;;;2.85;1.60;;;;;;;17.37;100.00;101714.69;5022095;28;20045;-81
2023/07/11 01:26:15;;;;;;;3.40;1.60;;;;;;;17.38;100.00;101719.16;5053875;28;20048;-83
2023/07/11 01:28:45;;;;;;;5.35;1.92;;;;;;;17.39;100.00;101699.56;5050927;28;20045;-82
2023/07/11 01:31:13;;;;;;;4.45;1.80;;;;;;;17.37;100.00;101694.25;5036500;28;20112;-81
2023/07/11 01:33:41;;;;;;;3.63;2.13;;;;;;;17.36;100.00;101689.84;4993876;28;20044;-82
2023/07/11 01:36:09;;;;;;;3.50;1.65;;;;;;;17.34;100.00;101689.84;5017075;28;20048;-82
2023/07/11 01:38:37;;;;;;;2.72;1.73;;;;;;;17.32;100.00;101688.13;5014453;28;20065;-82
2023/07/11 01:41:04;;;;;;;3.05;2.00;;;;;;;17.29;100.00;101675.69;5035555;28;20049;-82
2023/07/11 01:43:32;;;;;;;5.72;2.70;;;;;;;17.28;100.00;101676.63;5051838;28;20397;-82
2023/07/11 01:46:00;;;;;;;4.95;2.67;;;;;;;17.26;100.00;101677.56;5044534;28;20070;-83
2023/07/11 01:48:29;;;;;;;4.10;1.88;;;;;;;17.24;100.00;101679.31;4998406;28;20404;-82
2023/07/11 01:50:57;;;;;;;4.28;2.03;;;;;;;17.24;100.00;101668.66;5035441;28;20045;-83
2023/07/11 01:53:24;;;;;;;5.47;2.38;;;;;;;17.22;100.00;101678.44;5038816;28;20041;-80
2023/07/11 01:55:56;;;;;;;2.42;1.77;;;;;;;17.22;100.00;101678.44;4995042;28;20037;-82
2023/07/11 01:58:25;;;;;;;4.47;2.22;;;;;;;17.21;100.00;101664.25;5029422;28;20044;-81
2023/07/11 02:00:55;;;;;;;4.05;2.28;;;;;;;17.20;100.00;101667.84;5030348;28;20056;-82
2023/07/11 02:03:24;;;;;;;2.72;2.25;;;;;;;17.21;100.00;101661.59;5009257;28;20041;-81
2023/07/11 02:05:55;;;;;;;4.45;1.88;;;;;;;17.22;100.00;101654.47;5005275;28;20045;-82
2023/07/11 02:08:22;;;;;;;5.80;2.10;;;;;;;17.22;100.00;101652.72;5055539;28;20053;-81
2023/07/11 02:10:50;;;;;;;3.58;2.10;;;;;;;17.23;100.00;101645.59;5043515;28;20049;-82
2023/07/11 02:13:18;;;;;;;2.42;1.95;;;;;;;17.24;100.00;101642.03;5040038;28;20447;-82
2023/07/11 02:15:47;;;;;;;3.13;2.00;;;;;;;17.25;100.00;101638.47;5037923;28;20052;-82
2023/07/11 02:18:14;;;;;;;3.60;1.88;;;;;;;17.24;100.00;101631.38;5032871;28;20058;-81
2023/07/11 02:20:45;;;;;;;5.55;2.25;;;;;;;17.26;100.00;101635.81;4976569;28;20463;-83
2023/07/11 02:23:14;;;;;;;6.90;2.15;;;;;;;17.28;100.00;101627.81;5056163;28;20049;-82
2023/07/11 02:25:42;;;;;;;2.67;2.20;;;;;;;17.31;100.00;101620.63;5051477;28;20037;-80
2023/07/11 02:28:10;;;;;;;5.55;1.88;;;;;;;17.36;100.00;101619.72;5029296;28;20060;-81
2023/07/11 02:30:37;;;;;;;3.63;2.20;;;;;;;17.37;100.00;101613.47;4988239;28;20042;-81
2023/07/11 02:33:05;;;;;;;5.35;2.40;;;;;;;17.39;100.00;101604.56;5031553;28;20045;-81
2023/07/11 02:35:32;;;;;;;6.03;1.80;;;;;;;17.40;100.00;101608.97;5026631;28;20052;-81
2023/07/11 02:38:00;;;;;;;2.28;1.65;;;;;;;17.42;100.00;101606.31;5042753;28;20416;-82
2023/07/11 02:40:28;;;;;;;3.05;1.63;;;;;;;17.41;100.00;101604.53;5035046;28;20471;-81
2023/07/11 02:42:55;;;;;;;4.82;1.65;;;;;;;17.42;100.00;101598.31;4998662;28;20029;-82
2023/07/11 02:45:23;;;;;;;4.22;1.80;;;;;;;17.40;100.00;101587.66;5033174;28;20053;-81
2023/07/11 02:47:50;;;;;;;4.53;1.55;;;;;;;17.41;100.00;101575.22;5052205;28;20045;-81
2023/07/11 02:50:18;;;;;;;7.03;1.70;;;;;;;17.40;100.00;101579.69;5028370;28;20044;-81
2023/07/11 02:52:47;;;;;;;4.07;1.75;;;;;;;17.38;100.00;101581.47;4995187;28;20048;-81
2023/07/11 02:55:14;;;;;;;4.85;1.80;;;;;;;17.37;100.00;101571.72;5048258;28;20046;-81
2023/07/11 02:57:43;;;;;;;6.35;2.17;;;;;;;17.34;100.00;101569.97;5041438;28;20049;-82
2023/07/11 03:00:11;;;;;;;7.88;2.42;;;;;;;17.33;100.00;101570.91;5050776;28;20491;-81
2023/07/11 03:02:38;;;;;;;6.43;1.75;;;;;;;17.33;100.00;101570.00;5046728;28;20045;-81
2023/07/11 03:05:06;;;;;;;8.48;1.73;;;;;;;17.32;100.00;101577.13;5034280;28;20065;-81
2023/07/11 03:07:35;;;;;;;2.00;1.52;;;;;;;17.31;100.00;101569.13;4990224;28;20054;-81
2023/07/11 03:10:03;;;;;;;4.63;1.52;;;;;;;17.32;100.00;101570.91;5036045;28;20056;-81
2023/07/11 03:12:31;;;;;;;4.45;1.70;;;;;;;17.32;100.00;101553.13;5023867;28;20049;-81
2023/07/11 03:14:58;;;;;;;2.22;1.40;;;;;;;17.32;100.00;101557.59;5051068;28;20048;-81
2023/07/11 03:17:30;;;;;;;5.32;1.80;;;;;;;17.33;100.00;101551.34;5033711;28;20053;-81
2023/07/11 03:19:57;;;;;;;1.48;1.25;;;;;;;17.33;100.00;101543.34;5034070;28;20518;-81
2023/07/11 03:22:26;;;;;;;4.18;1.90;;;;;;;17.34;100.00;101543.34;5053840;28;20053;-81
2023/07/11 03:24:54;;;;;;;6.57;1.77;;;;;;;17.33;100.00;101541.59;4988878;28;20127;-81
2023/07/11 03:27:22;;;;;;;5.45;2.03;;;;;;;17.35;100.00;101528.22;5014131;28;20049;-81
2023/07/11 03:29:50;;;;;;;5.32;1.58;;;;;;;17.36;100.00;101521.16;5023660;28;20549;-82
2023/07/11 03:32:18;;;;;;;4.72;1.50;;;;;;;17.36;100.00;101522.03;5020044;28;20042;-81
2023/07/11 03:34:45;;;;;;;4.97;1.80;;;;;;;17.36;100.00;101506.03;5011946;28;20133;-81
2023/07/11 03:37:25;;;;;;;4.60;2.20;;;;;;;17.34;100.00;101506.06;5036397;28;20057;-82
2023/07/11 03:39:53;;;;;;;4.70;1.70;;;;;;;17.35;100.00;101501.59;5021939;28;20053;-82
2023/07/11 03:42:20;;;;;;;5.05;1.70;;;;;;;17.35;100.00;101493.59;5056056;28;20492;-80
2023/07/11 03:44:48;;;;;;;6.18;1.80;;;;;;;17.37;100.00;101496.25;5030946;28;20046;-81
2023/07/11 03:47:15;;;;;;;5.85;2.25;;;;;;;17.36;100.00;101498.03;5023985;28;20052;-80
2023/07/11 03:49:42;;;;;;;2.13;1.40;;;;;;;17.38;100.00;101501.56;5020928;28;20492;-81
2023/07/11 03:52:10;;;;;;;4.78;2.13;;;;;;;17.39;100.00;101497.09;5019148;28;20026;-80
2023/07/11 03:54:37;;;;;;;4.70;1.88;;;;;;;17.39;100.00;101492.69;4962310;28;20500;-81
2023/07/11 03:57:05;;;;;;;6.55;1.85;;;;;;;17.40;100.00;101494.41;5028564;28;20052;-81
2023/07/11 03:59:32;;;;;;;4.38;1.90;;;;;;;17.42;100.00;101484.63;5022021;28;20323;-81
2023/07/11 04:02:00;;;;;;;3.88;2.00;;;;;;;17.45;100.00;101481.06;4987352;28;20416;-81
2023/07/11 04:04:27;;;;;;;3.03;1.90;;;;;;;17.45;100.00;101481.94;5025268;28;20049;-81
2023/07/11 04:06:56;;;;;;;6.53;1.90;;;;;;;17.47;100.00;101488.09;5033567;28;20057;-81
2023/07/11 04:09:23;;;;;;;7.38;1.85;;;;;;;17.48;100.00;101473.88;5025082;28;20064;-81
2023/07/11 04:11:50;;;;;;;6.25;2.25;;;;;;;17.49;100.00;101485.44;4996180;28;20061;-79
2023/07/11 04:14:18;;;;;;;7.00;2.47;;;;;;;17.51;100.00;101481.81;5013195;28;20052;-81
2023/07/11 04:16:46;;;;;;;6.80;2.10;;;;;;;17.53;100.00;101474.69;5017925;28;20060;-81
2023/07/11 04:19:14;;;;;;;6.88;2.50;;;;;;;17.56;100.00;101479.09;4997880;28;20058;-82
2023/07/11 04:21:41;;;;;;;5.85;2.13;;;;;;;17.58;100.00;101466.63;5002944;28;20424;-82
2023/07/11 04:24:08;;;;;;;7.32;2.10;;;;;;;17.62;100.00;101475.47;5020354;28;20060;-81
2023/07/11 04:26:36;;;;;;;7.32;2.20;;;;;;;17.69;100.00;101474.44;4988951;28;20716;-82
2023/07/11 04:29:04;;;;;;;5.90;2.10;;;;;;;17.74;100.00;101469.91;5022235;28;20863;-81
2023/07/11 04:31:31;;;;;;;4.20;2.25;;;;;;;17.84;100.00;101462.63;5020672;28;20071;-82
2023/07/11 04:33:59;;;;;;;4.50;1.85;;;;;;;17.99;100.00;101458.84;5040814;28;20053;-82
2023/07/11 04:36:26;;;;;;;3.97;2.08;;;;;;;18.09;100.00;101461.34;5012132;28;20072;-81
2023/07/11 04:38:54;;;;;;;6.78;2.72;;;;;;;18.19;100.00;101462.03;5006834;28;20441;-80
2023/07/11 04:41:21;;;;;;;4.70;1.95;;;;;;;18.50;100.00;101466.78;4961468;28;25636;-81
2023/07/11 04:43:49;;;;;;;5.05;2.20;;;;;;;18.97;100.00;101466.75;5044930;28;20515;-81
2023/07/11 04:46:17;;;;;;;6.57;2.15;;;;;;;19.16;100.00;101462.72;4986136;28;20053;-80
2023/07/11 04:48:46;;;;;;;7.93;2.40;;;;;;;19.24;100.00;101457.22;5035910;28;20057;-82
2023/07/11 04:51:14;;;;;;;7.65;2.08;;;;;;;19.24;100.00;101454.53;5051595;28;20068;-81
2023/07/11 04:53:43;;;;;;;5.38;2.20;;;;;;;19.20;100.00;101455.53;5039722;28;20041;-80
2023/07/11 04:56:11;;;;;;;11.15;2.75;;;;;;;19.11;100.00;101448.63;5024374;28;20053;-80
2023/07/11 04:58:39;;;;;;;3.13;1.75;;;;;;;19.06;100.00;101453.19;4999558;28;20064;-82
2023/07/11 05:01:09;;;;;;;2.50;2.03;;;;;;;19.13;100.00;101445.91;5006303;28;20049;-82
2023/07/11 05:03:37;;;;;;;;;;;;;;;19.13;100.00;101443.22;5022584;28;20036;-81
2023/07/11 05:06:06;;;;;;;4.80;2.58;;;;;;;19.12;100.00;101436.16;5035747;28;19925;-81
2023/07/11 05:08:34;;;;;;;3.07;2.17;;;;;;;19.13;100.00;101422.75;5033033;28;20040;-80
2023/07/11 05:11:11;;;;;;;5.75;2.60;;;;;;;19.15;100.00;101426.28;5018091;28;20057;-81
2023/07/11 05:13:40;;;;;;;4.97;2.80;;;;;;;19.16;100.00;101411.09;4987152;28;20053;-81
2023/07/11 05:16:10;;;;;;;5.20;2.35;;;;;;;19.15;100.00;101425.38;5030467;28;20061;-83
2023/07/11 05:18:40;;;;;;;4.93;2.70;;;;;;;19.40;100.00;101412.31;5010883;28;20057;-80
2023/07/11 05:21:13;;;;;;;4.80;2.58;;;;;;;19.97;100.00;101408.22;5012240;28;20053;-83
2023/07/11 05:23:41;;;;;;;5.82;2.65;;;;;;;20.39;100.00;101398.09;5040959;28;20283;-79
2023/07/11 05:26:09;;;;;;;5.43;2.20;;;;;;;20.97;100.00;101408.88;5023107;28;20108;-80
2023/07/11 05:28:37;;;;;;;5.93;2.75;;;;;;;21.59;100.00;101399.75;5000851;28;20045;-80
2023/07/11 05:31:06;;;;;;;5.35;2.85;;;;;;;22.20;100.00;101396.72;5041128;28;20608;-79
2023/07/11 05:33:34;;;;;;;4.45;1.98;;;;;;;23.02;100.00;101401.66;5027007;28;20048;-80
2023/07/11 05:38:36;;;;;;;5.60;2.63;;;;;;;24.38;100.00;101380.66;5046136;28;20160;-79
2023/07/11 05:41:04;;;;;;;3.67;2.28;;;;;;;24.79;100.00;101390.47;5019976;28;20050;-80
2023/07/11 05:43:34;;;;;;;4.22;2.08;;;;;;;25.10;100.00;101384.44;5049186;28;20041;-79
2023/07/11 05:46:02;;;;;;;5.85;2.58;;;;;;;25.20;100.00;101391.16;4959345;28;20055;-81
2023/07/11 05:48:30;;;;;;;4.65;2.30;;;;;;;25.07;100.00;101379.22;5038035;28;20045;-80
2023/07/11 05:51:06;;;;;;;5.13;2.20;;;;;;;24.75;100.00;101375.41;5028267;28;20053;-83
2023/07/11 05:53:34;;;;;;;3.35;2.25;;;;;;;24.55;100.00;101376.34;5037313;28;20060;-80
2023/07/11 05:56:02;;;;;;;3.35;2.40;;;;;;;24.30;100.00;101374.75;5045280;28;20030;-81
2023/07/11 05:58:31;;;;;;;8.57;2.35;;;;;;;24.28;100.00;101368.56;5037482;28;20746;-81
2023/07/11 06:00:59;;;;;;;5.22;2.47;;;;;;;24.24;100.00;101365.13;4970522;28;20053;-80
2023/07/11 06:03:29;;;;;;;7.88;2.45;;;;;;;24.49;100.00;101362.16;5037354;28;20045;-80
2023/07/11 06:06:02;;;;;;;7.72;2.58;;;;;;;24.56;100.00;101352.03;5023999;28;20105;-80
2023/07/11 06:08:30;;;;;;;7.03;2.38;;;;;;;24.39;99.54;101355.47;5024398;28;20056;-80
2023/07/11 06:11:01;;;;;;;5.47;2.90;;;;;;;24.09;99.16;101347.00;5028522;28;20508;-80
2023/07/11 06:13:29;;;;;;;5.53;2.40;;;;;;;23.74;100.00;101352.97;5004813;28;20048;-80
2023/07/11 06:16:15;;;;;;;6.07;2.85;;;;;;;23.42;100.00;101348.09;5007291;28;20041;-82
2023/07/11 06:18:43;;;;;;;6.13;3.05;;;;;;;23.15;100.00;101348.31;5045275;28;20420;-80
2023/07/11 06:21:11;;;;;;;5.10;2.70;;;;;;;23.01;100.00;101339.94;5003262;28;20041;-80
2023/07/11 06:23:39;;;;;;;4.28;2.70;;;;;;;22.91;100.00;101343.00;5051281;28;20151;-80
2023/07/11 06:26:08;;;;;;;4.95;2.40;;;;;;;22.80;100.00;101337.19;5045793;28;20034;-79
2023/07/11 06:28:36;;;;;;;9.35;3.05;;;;;;;22.68;100.00;101329.59;5003893;28;20049;-80
2023/07/11 06:31:06;;;;;;;4.57;2.50;;;;;;;22.64;100.00;101320.78;4983467;28;20060;-81
2023/07/11 06:33:35;;;;;;;6.13;3.03;;;;;;;22.70;100.00;101308.94;5016593;28;20037;-81
2023/07/11 06:36:04;;;;;;;4.70;2.97;;;;;;;22.79;100.00;101305.88;5026978;28;20485;-80
2023/07/11 06:38:32;;;;;;;7.10;3.00;;;;;;;22.90;100.00;101308.13;5029880;28;20516;-80
2023/07/11 06:41:00;;;;;;;9.02;3.20;;;;;;;23.04;100.00;101307.56;5053276;28;20295;-80
2023/07/11 06:43:29;;;;;;;5.95;2.80;;;;;;;23.23;100.00;101303.19;5052583;28;20045;-80
2023/07/11 06:45:58;;;;;;;5.78;2.65;;;;;;;23.37;100.00;101299.03;4986641;28;20064;-80
2023/07/11 06:48:28;;;;;;;5.53;3.10;;;;;;;23.47;100.00;101300.38;5028549;28;20064;-80
2023/07/11 06:51:02;;;;;;;5.47;3.33;;;;;;;23.50;100.00;101300.25;5023011;28;20057;-80
2023/07/11 06:53:33;;;;;;;4.85;2.83;;;;;;;23.51;100.00;101299.28;5033693;28;20046;-80
2023/07/11 06:56:01;;;;;;;;;;;;;;;23.49;100.00;101299.34;5043163;28;20045;-80
2023/07/11 06:58:31;;;;;;;5.00;3.03;;;;;;;23.43;100.00;101299.63;5046425;28;19921;-80
2023/07/11 07:01:02;;;;;;;5.35;2.80;;;;;;;23.41;100.00;101303.34;4951502;28;21224;-80
2023/07/11 07:03:31;;;;;;;5.85;3.08;;;;;;;23.42;100.00;101292.53;5036051;28;20060;-81
2023/07/11 07:06:05;;;;;;;4.93;2.92;;;;;;;23.51;100.00;101294.78;5049502;28;20044;-80
2023/07/11 07:08:33;;;;;;;4.25;2.53;;;;;;;23.65;100.00;101293.34;5013013;28;20056;-80
2023/07/11 07:11:00;;;;;;;6.72;2.78;;;;;;;23.73;100.00;101297.41;5025834;28;20050;-80
2023/07/11 07:13:28;;;;;;;3.97;2.22;;;;;;;23.71;100.00;101293.91;5053311;28;20057;-81
2023/07/11 07:15:58;;;;;;;5.95;2.78;;;;;;;23.65;100.00;101286.13;4985111;28;21687;-81
2023/07/11 07:18:32;;;;;;;5.38;2.55;;;;;;;23.62;100.00;101282.69;5033334;28;20056;-81
2023/07/11 07:21:00;;;;;;;6.38;2.42;;;;;;;23.63;100.00;101279.03;5039282;28;20061;-81
2023/07/11 07:23:28;;;;;;;5.63;2.60;;;;;;;23.61;100.00;101276.44;5014151;28;20052;-80
2023/07/11 07:25:58;;;;;;;6.75;2.92;;;;;;;23.67;100.00;101276.16;5032948;28;20042;-82
2023/07/11 07:28:27;;;;;;;3.65;2.30;;;;;;;23.74;100.00;101276.75;5041387;28;20064;-82
2023/07/11 07:30:56;;;;;;;7.63;2.50;;;;;;;23.81;100.00;101272.00;5022028;28;20060;-81
2023/07/11 07:33:26;;;;;;;2.72;2.20;;;;;;;23.87;100.00;101277.97;4999817;28;20076;-81
2023/07/11 07:36:03;;;;;;;4.82;2.58;;;;;;;23.90;100.00;101276.97;5036268;28;20042;-81
2023/07/11 07:38:31;;;;;;;8.77;2.42;;;;;;;23.94;100.00;101273.19;5039956;28;20029;-80
2023/07/11 07:41:06;;;;;;;4.20;2.08;;;;;;;23.99;100.00;101276.56;5046470;28;20041;-80
2023/07/11 07:43:44;;;;;;;11.90;2.60;;;;;;;24.10;100.00;101273.34;5050093;28;20049;-80
2023/07/11 07:46:15;;;;;;;4.57;2.53;;;;;;;24.25;100.00;101272.66;5023593;28;20045;-80
2023/07/11 07:48:45;;;;;;;6.38;2.63;;;;;;;24.30;100.00;101267.03;4997924;28;20061;-80
2023/07/11 07:51:16;;;;;;;5.68;2.53;;;;;;;24.36;99.98;101263.16;5016285;28;20054;-79
2023/07/11 07:53:44;;;;;;;2.65;2.08;;;;;;;24.38;100.00;101259.44;5028547;28;20057;-81
2023/07/11 07:56:15;;;;;;;5.40;2.17;;;;;;;24.45;99.73;101255.50;5040616;28;20056;-79
2023/07/11 07:58:42;;;;;;;2.95;2.00;;;;;;;24.52;99.92;101245.38;5036099;28;20049;-81
2023/07/11 08:01:13;;;;;;;5.93;2.13;;;;;;;24.60;100.00;101253.06;5029328;28;20052;-81
2023/07/11 08:03:40;;;;;;;5.10;2.17;;;;;;;24.64;99.55;101243.88;4997201;28;20434;-80
2023/07/11 08:06:10;;;;;;;2.80;2.20;;;;;;;24.66;98.84;101239.28;5033063;28;20052;-81
2023/07/11 08:08:47;;;;;;;3.80;2.08;;;;;;;24.62;97.42;101241.25;5050016;28;20075;-81
2023/07/11 08:11:17;;;;;;;4.82;2.50;;;;;;;24.55;97.18;101234.41;5015602;28;20050;-80
2023/07/11 08:13:47;;;;;;;4.32;2.08;;;;;;;24.54;97.98;101237.19;5034180;28;20053;-80
2023/07/11 08:16:28;;;;;;;4.38;2.63;;;;;;;24.56;99.43;101224.53;5021883;28;20507;-80
2023/07/11 08:19:04;;;;;;;5.78;2.50;;;;;;;24.60;100.00;101223.44;4999885;28;20050;-80
2023/07/11 08:21:35;;;;;;;3.58;2.10;;;;;;;24.63;100.00;101218.75;5036148;28;20045;-79
2023/07/11 08:24:06;;;;;;;8.40;3.05;;;;;;;24.71;100.00;101213.84;5042544;28;20080;-79
2023/07/11 08:26:34;;;;;;;5.30;2.28;;;;;;;24.82;100.00;101207.03;5001769;28;20037;-80
2023/07/11 08:29:02;;;;;;;7.32;2.55;;;;;;;24.91;99.26;101206.56;5023367;28;20053;-82
2023/07/11 08:31:42;;;;;;;6.13;2.20;;;;;;;24.99;99.71;101204.38;5029170;28;20053;-79
2023/07/11 08:34:10;;;;;;;6.40;2.25;;;;;;;25.06;99.98;101197.69;5005105;28;20357;-80
2023/07/11 08:36:39;;;;;;;3.78;2.35;;;;;;;25.05;97.31;101200.50;5041995;28;20056;-80
2023/07/11 08:39:07;;;;;;;6.28;2.00;;;;;;;25.06;96.52;101200.38;5035855;28;20057;-80
2023/07/11 08:41:47;;;;;;;3.78;2.03;;;;;;;25.03;94.45;101197.00;5030315;28;20057;-80
2023/07/11 08:44:18;;;;;;;5.85;2.13;;;;;;;24.99;95.12;101200.78;5045252;28;20053;-80
2023/07/11 08:46:55;;;;;;;3.67;2.05;;;;;;;24.97;95.01;101200.88;5037139;28;20049;-80
2023/07/11 08:49:32;;;;;;;5.45;2.05;;;;;;;24.93;95.12;101196.56;5015142;28;20045;-80
2023/07/11 08:52:02;;;;;;;5.75;2.30;;;;;;;24.87;96.19;101189.69;5032370;28;20053;-81
2023/07/11 08:54:35;;;;;;;;;;;;;;;24.83;95.31;101182.72;5040677;28;20079;-80
2023/07/11 08:57:03;;;;;;;3.97;2.20;;;;;;;24.84;96.70;101172.78;5010257;28;19921;-80
2023/07/11 08:59:53;;;;;;;4.80;2.30;;;;;;;24.90;96.27;101184.13;5020194;28;20053;-79
2023/07/11 09:02:29;;;;;;;7.03;2.47;;;;;;;24.98;96.73;101174.78;5053120;28;20049;-80
2023/07/11 09:04:58;;;;;;;5.93;2.50;;;;;;;25.01;97.12;101171.91;5012314;28;20932;-82
2023/07/11 09:07:43;;;;;;;5.93;2.63;;;;;;;25.05;96.79;101163.59;5032490;28;20048;-80
2023/07/11 09:10:19;;;;;;;5.95;2.50;;;;;;;25.21;98.52;101158.25;5040054;28;20053;-80
2023/07/11 09:13:05;;;;;;;3.35;2.30;;;;;;;25.41;98.94;101156.38;5021086;28;20075;-80
2023/07/11 09:15:57;;;;;;;5.85;2.30;;;;;;;25.52;97.09;101155.75;5032327;28;20048;-79
2023/07/11 09:18:56;;;;;;;7.28;2.60;;;;;;;25.65;96.80;101157.72;5050889;28;20629;-80
2023/07/11 09:22:06;;;;;;;5.30;2.60;;;;;;;25.78;96.11;101152.50;4996478;28;20045;-80
2023/07/11 09:25:11;;;;;;;2.75;1.98;;;;;;;25.87;94.06;101145.72;5035024;28;20401;-80
2023/07/11 09:27:48;;;;;;;3.88;2.20;;;;;;;25.90;91.67;101140.16;5006820;28;20829;-79
2023/07/11 09:30:31;;;;;;;3.10;1.90;;;;;;;25.97;90.06;101138.88;5034091;28;20048;-80
2023/07/11 09:33:20;;;;;;;4.78;1.80;;;;;;;26.10;89.77;101151.69;5022055;28;20423;-80
2023/07/11 09:35:50;;;;;;;3.90;1.80;;;;;;;26.28;90.22;101137.13;5006962;28;20794;-79
2023/07/11 09:38:40;;;;;;;;;;;;;;;26.43;82.81;101143.47;5024321;28;20061;-80
2023/07/11 09:41:27;;;;;;;4.72;2.10;;;;;;;26.56;84.04;101143.59;5030797;28;20449;-79
2023/07/11 09:44:14;;;;;;;3.17;2.10;;;;;;;26.63;84.76;101139.59;5018311;28;20053;-80
2023/07/11 09:46:42;;;;;;;3.30;1.77;;;;;;;26.64;84.01;101144.06;5026587;28;20829;-79
2023/07/11 09:49:18;;;;;;;8.60;2.15;;;;;;;26.68;83.97;101133.94;5030967;28;20053;-80
2023/07/11 09:51:55;;;;;;;3.53;1.40;;;;;;;26.73;81.77;101129.09;4996084;28;20049;-80
2023/07/11 09:54:41;;;;;;;4.55;1.67;;;;;;;26.75;78.63;101135.28;5015628;28;20041;-80
2023/07/11 09:57:18;;;;;;;3.35;1.77;;;;;;;26.75;78.60;101130.75;5032234;28;20048;-81
2023/07/11 09:59:58;;;;;;;3.85;2.15;;;;;;;26.84;76.32;101130.22;5037342;28;20053;-81
2023/07/11 10:02:46;;;;;;;;;;;;;;;26.98;71.54;101117.69;5028825;28;20509;-80
2023/07/11 10:05:18;;;;;;;4.80;1.92;;;;;;;27.17;76.72;101122.81;5047199;28;19928;-80
2023/07/11 10:07:47;;;;;;;5.53;2.00;;;;;;;27.35;76.57;101121.72;4984953;28;20055;-82
2023/07/11 10:10:15;;;;;;;4.13;1.92;;;;;;;27.54;75.46;101110.56;5037942;28;20053;-79
2023/07/11 10:12:43;;;;;;;5.28;1.63;;;;;;;27.67;74.05;101115.19;5053339;28;20052;-80
2023/07/11 10:15:16;;;;;;;2.80;1.55;;;;;;;27.72;73.83;101108.50;5028948;28;20060;-81
2023/07/11 10:17:44;;;;;;;6.53;2.30;;;;;;;27.77;72.38;101113.63;5018497;28;20049;-81
2023/07/11 10:20:17;;;;;;;4.57;1.67;;;;;;;27.85;72.01;101116.72;5048295;28;20053;-81
2023/07/11 10:22:53;;;;;;;4.32;1.60;;;;;;;27.94;69.32;101099.88;4988343;28;20048;-80
2023/07/11 10:25:30;;;;;;;5.43;2.00;;;;;;;27.98;70.90;101096.00;5048136;28;20049;-80
2023/07/11 10:28:30;;;;;;;6.88;1.80;;;;;;;28.06;69.14;101097.34;5044280;28;20497;-81
2023/07/11 10:31:21;;;;;;;4.38;1.55;;;;;;;28.13;72.75;101095.97;5014470;28;20380;-81
2023/07/11 10:34:27;;;;;;;3.88;2.15;;;;;;;27.99;66.55;101105.84;5036812;28;20045;-81
2023/07/11 10:37:04;;;;;;;6.47;1.60;;;;;;;27.88;63.51;101102.94;5032158;28;20048;-81
2023/07/11 10:39:47;;;;;;;2.75;1.45;;;;;;;27.81;67.48;101105.19;5015936;28;20042;-79
2023/07/11 10:42:15;;;;;;;2.67;1.65;;;;;;;27.76;66.59;101101.06;5048516;28;20051;-79
2023/07/11 10:44:47;;;;;;;3.38;1.75;;;;;;;27.65;65.15;101100.88;5020414;28;20049;-80
2023/07/11 10:47:27;;;;;;;6.30;1.83;;;;;;;27.65;63.93;101092.75;5035111;28;20033;-80
2023/07/11 10:49:57;;;;;;;5.30;1.70;;;;;;;27.60;64.18;101087.66;5032517;28;20049;-79
2023/07/11 10:52:26;;;;;;;5.45;1.75;;;;;;;27.63;68.36;101095.56;5001877;28;20586;-79
2023/07/11 10:55:07;;;;;;;7.88;1.80;;;;;;;27.70;68.22;101098.75;5048214;28;20037;-80
2023/07/11 10:57:41;;;;;;;3.55;1.50;;;;;;;27.71;66.86;101092.34;5029896;28;20618;-82
2023/07/11 11:00:16;;;;;;;4.85;1.73;;;;;;;27.78;68.13;101088.28;5036588;28;20057;-80
2023/07/11 11:03:12;;;;;;;6.20;1.80;;;;;;;27.90;68.96;101092.06;5007292;28;20053;-80
2023/07/11 11:06:10;;;;;;;2.58;1.45;;;;;;;27.95;65.87;101081.78;5043901;28;20060;-79
2023/07/11 11:08:55;;;;;;;4.28;1.60;;;;;;;27.93;66.02;101087.31;5002726;28;20059;-80
2023/07/11 11:12:02;;;;;;;3.33;1.50;;;;;;;27.84;65.92;101093.28;5041544;28;20499;-80
2023/07/11 11:14:51;;;;;;;3.28;1.45;;;;;;;27.73;66.34;101085.00;5023447;28;20045;-80
2023/07/11 11:17:56;;;;;;;4.05;1.80;;;;;;;27.74;69.19;101087.63;5037205;28;20062;-80
2023/07/11 11:21:00;;;;;;;2.20;1.42;;;;;;;27.84;68.24;101078.88;5040518;28;20048;-80
2023/07/11 11:24:08;;;;;;;3.47;1.70;;;;;;;27.85;69.42;101067.09;4948240;28;21000;-80
2023/07/11 11:26:59;;;;;;;2.83;1.60;;;;;;;27.89;72.19;101066.81;5029238;28;20048;-80
2023/07/11 11:29:33;;;;;;;3.83;1.70;;;;;;;28.01;71.94;101062.41;5041300;28;20060;-80
2023/07/11 11:32:25;;;;;;;4.28;1.88;;;;;;;27.94;67.93;101061.97;5051690;28;20053;-80
2023/07/11 11:35:23;;;;;;;4.43;1.70;;;;;;;27.90;67.89;101067.69;5016667;28;20050;-79
2023/07/11 11:38:05;;;;;;;5.35;2.15;;;;;;;27.81;70.62;101063.72;5041493;28;20495;-80
2023/07/11 11:40:44;;;;;;;7.60;1.75;;;;;;;27.93;69.70;101062.94;5006564;28;20044;-80
2023/07/11 11:43:14;;;;;;;3.80;1.60;;;;;;;28.07;71.16;101056.63;5052768;28;20049;-80
2023/07/11 11:45:50;;;;;;;4.60;1.50;;;;;;;28.23;72.28;101058.28;5035078;28;20056;-81
2023/07/11 11:48:26;;;;;;;3.00;2.10;;;;;;;28.33;71.41;101054.81;5038990;28;20045;-81